UWKDUWLW

Guest
Details From UWKD - KAZAN
To UWLW - VOSTOCHNY
Flight Number -
Tags None
Created
Modified
Stats Distance 74 nm / 138 km
Max Altitude 0 ft / 0 m
Waypoints 3
Social Downloads 0
Likes 0
Share VATSIM

Download

Looking for another format? Having issues loading an existing format? Contact us
Advertisement - Login to hide

Notes

None

Route

UWKD KZN UWLW

ID Type Via Altitude Latitude Longitude Leg Dist Tot Dist Heading (true) Name
O UWKD APT - 0 ft / 0 m 55.60654˚ 49.27969˚ - 0 nm - KAZAN
KZN VOR - 0 ft / 0 m 55.60583˚ 49.27250˚ 0 nm 0 nm 260° / 260° KAZAN VOR-DME
O UWLW APT - 0 ft / 0 m 54.40101˚ 48.80266˚ 74 nm 74 nm 193° / 192° VOSTOCHNY

Altitude Profile

Advertisement - Login to hide

UWKD

Details ICAO UWKD (KZN)
Name KAZAN
Region Russia
Timezone Europe/Moscow (UTC+3.0)
Stats Elevation 411 ft / 125 m (AMSL)
Location 55.606544° 49.279689°
Runways 2
Magnetic Variation 13.335° E

METAR

UWKD 270500Z 25007G12MPS CAVOK 16/02 Q1024 R29/CLRD70 NOSIG RMK QFE757/1009

Decode

TAF

TAF UWKD 270150Z 2703/2803 25007G12MPS 9999 SCT020 TX23/2710Z TN06/2801Z TEMPO 2706/2718 27010G15MPS TEMPO 2718/2724 5000 -SHRA BKN011CB BECMG 2800/2802 32007G12MPS

Decode

Departure Runways

ID Width Length Bearing (true) Bearing (mag) Surface Threshold Offset Overrun Length
11L 144 ft / 44 m 12,189 ft / 3,715 m 126.46° 113.13° Concrete 837 ft / 255 m 0 ft / 0 m
11R 148 ft / 45 m 8,174 ft / 2,492 m 124.48° 111.15° Concrete 0 ft / 0 m 180 ft / 55 m
29L 148 ft / 45 m 8,174 ft / 2,492 m 304.51° 291.18° Concrete 0 ft / 0 m 180 ft / 55 m
29R 144 ft / 44 m 12,189 ft / 3,715 m 306.50° 293.17° Concrete 0 ft / 0 m 160 ft / 49 m

UWLW

Details ICAO UWLW (ULY)
Name VOSTOCHNY
Region Russia
Timezone Europe/Moscow (UTC+3.0)
Stats Elevation 252 ft / 77 m (AMSL)
Location 54.401014° 48.802664°
Runways 1
Magnetic Variation 12.548° E

METAR

UWLW 270500Z 26007MPS 8000 NSC 16/01 Q1028 R20/CLRD60 NOSIG RMK QFE765

Decode

TAF

TAF UWLW 270145Z 2703/2803 27006MPS 8000 SCT033 TEMPO 2706/2721 23010G15MPS TEMPO 2721/2803 33007G12MPS 3100 -SHRA BKN015CB

Decode

Destination Runways

ID Width Length Bearing (true) Bearing (mag) Surface Threshold Offset Overrun Length
02 344 ft / 105 m 16,466 ft / 5,019 m 31.42° 18.87° Concrete 0 ft / 0 m 264 ft / 80 m
20 344 ft / 105 m 16,466 ft / 5,019 m 211.45° 198.90° Concrete 0 ft / 0 m 248 ft / 76 m

Approach Navaids

Runway Type Ident Frequency Range Bearing (true) Bearing (mag) Slope Elevation
02 Localiser IUL 110.10 MHz 18 nm / 33 km 31.62° 19.07° - 252 ft / 77 m (AMSL)
02 Glidescope IUL 110.10 MHz 10 nm / 19 km 31.44° 18.89° 2.70° 252 ft / 77 m (AMSL)
20 Localiser IWN 110.10 MHz 18 nm / 33 km 209.79° 197.24° - 252 ft / 77 m (AMSL)
20 Glidescope IWN 110.10 MHz 10 nm / 19 km 211.44° 198.89° 2.70° 252 ft / 77 m (AMSL)

Popular Alternatives